createdAt,value
2023-05-21T00:00:00.269Z,16.20
2023-05-21T00:02:31.215Z,16.10
2023-05-21T00:05:02.064Z,16.30
2023-05-21T00:07:32.204Z,16.20
2023-05-21T00:10:01.227Z,16.10
2023-05-21T00:12:29.789Z,16.20
2023-05-21T00:14:59.016Z,16.30
2023-05-21T00:17:27.737Z,16.00
2023-05-21T00:19:58.208Z,16.00
2023-05-21T00:22:26.453Z,16.10
2023-05-21T00:24:54.892Z,16.00
2023-05-21T00:27:25.378Z,16.20
2023-05-21T00:29:53.329Z,16.00
2023-05-21T00:32:21.561Z,16.00
2023-05-21T00:34:50.356Z,16.30
2023-05-21T00:37:19.514Z,16.00
2023-05-21T00:39:49.714Z,16.10
2023-05-21T00:42:20.644Z,15.90
2023-05-21T00:44:49.009Z,15.90
2023-05-21T00:47:18.623Z,16.00
2023-05-21T00:49:47.717Z,15.90
2023-05-21T00:52:20.712Z,16.00
2023-05-21T00:54:52.579Z,15.90
2023-05-21T00:57:21.485Z,15.80
2023-05-21T00:59:54.421Z,16.20
2023-05-21T01:02:24.634Z,15.90
2023-05-21T01:04:56.563Z,16.20
2023-05-21T01:07:25.320Z,16.20
2023-05-21T01:09:54.572Z,15.90
2023-05-21T01:12:25.226Z,15.80
2023-05-21T01:14:54.585Z,15.90
2023-05-21T01:17:25.779Z,15.80
2023-05-21T01:19:55.207Z,15.60
2023-05-21T01:22:25.362Z,15.60
2023-05-21T01:24:55.867Z,15.40
2023-05-21T01:27:25.212Z,15.40
2023-05-21T01:29:53.637Z,15.20
2023-05-21T01:32:57.473Z,15.00
2023-05-21T01:35:50.142Z,15.20
2023-05-21T01:38:30.090Z,14.90
2023-05-21T01:41:18.516Z,14.90
2023-05-21T01:43:48.753Z,14.80
2023-05-21T01:46:25.063Z,15.20
2023-05-21T01:48:57.001Z,14.90
2023-05-21T01:51:28.585Z,15.00
2023-05-21T01:53:56.793Z,14.70
2023-05-21T01:56:26.750Z,14.80
2023-05-21T01:59:00.128Z,14.80
2023-05-21T02:01:31.721Z,14.90
2023-05-21T02:04:00.869Z,14.70
2023-05-21T02:06:29.552Z,14.80
2023-05-21T02:09:02.720Z,14.60
2023-05-21T02:11:31.096Z,14.90
2023-05-21T02:13:59.760Z,14.70
2023-05-21T02:16:29.311Z,14.60
2023-05-21T02:18:58.169Z,14.60
2023-05-21T02:21:27.177Z,15.00
2023-05-21T02:23:58.925Z,14.80
2023-05-21T02:26:27.454Z,14.70
2023-05-21T02:28:56.546Z,14.90
2023-05-21T02:31:24.857Z,15.00
2023-05-21T02:33:54.406Z,14.90
2023-05-21T02:36:22.618Z,14.70
2023-05-21T02:38:50.402Z,14.80
2023-05-21T02:41:20.286Z,14.60
2023-05-21T02:43:48.322Z,14.20
2023-05-21T02:46:17.627Z,14.50
2023-05-21T02:48:46.306Z,14.50
2023-05-21T02:51:14.846Z,14.20
2023-05-21T02:53:43.050Z,14.40
2023-05-21T02:56:10.652Z,14.40
2023-05-21T02:58:41.118Z,14.40
2023-05-21T03:01:09.549Z,14.30
2023-05-21T03:03:38.332Z,14.30
2023-05-21T03:06:10.409Z,14.30
2023-05-21T03:08:39.510Z,14.30
2023-05-21T03:11:08.348Z,14.30
2023-05-21T03:13:37.592Z,14.30
2023-05-21T03:16:06.286Z,14.30
2023-05-21T03:18:34.486Z,14.20
2023-05-21T03:21:02.770Z,14.10
2023-05-21T03:23:31.667Z,14.30
2023-05-21T03:26:01.031Z,14.30
2023-05-21T03:28:30.534Z,14.40
2023-05-21T03:31:02.172Z,14.30
2023-05-21T03:33:32.863Z,14.30
2023-05-21T03:36:02.329Z,14.40
2023-05-21T03:38:31.613Z,14.40
2023-05-21T03:41:00.585Z,14.50
2023-05-21T03:43:31.845Z,14.30
2023-05-21T03:46:01.443Z,14.50
2023-05-21T03:48:30.755Z,14.60
2023-05-21T03:51:01.199Z,14.70
2023-05-21T03:53:29.285Z,14.80
2023-05-21T03:56:08.119Z,14.90
2023-05-21T03:58:50.330Z,15.00
2023-05-21T04:01:19.712Z,15.30
2023-05-21T04:03:49.268Z,15.20
2023-05-21T04:06:20.611Z,15.10
2023-05-21T04:08:54.793Z,15.30
2023-05-21T04:11:28.022Z,15.30
2023-05-21T04:13:57.663Z,15.70
2023-05-21T04:16:28.148Z,15.30
2023-05-21T04:19:01.202Z,15.50
2023-05-21T04:21:29.918Z,15.80
2023-05-21T04:24:03.229Z,15.90
2023-05-21T04:26:36.612Z,16.00
2023-05-21T04:29:05.405Z,16.00
2023-05-21T04:31:38.123Z,16.40
2023-05-21T04:34:07.804Z,16.20
2023-05-21T04:36:41.044Z,16.20
2023-05-21T04:39:15.454Z,16.30
2023-05-21T04:41:49.594Z,16.50
2023-05-21T04:44:19.415Z,16.60
2023-05-21T04:46:49.206Z,17.10
2023-05-21T04:49:17.526Z,17.10
2023-05-21T04:51:47.011Z,18.00
2023-05-21T04:54:32.164Z,19.50
2023-05-21T04:57:04.536Z,20.80
2023-05-21T04:59:32.875Z,21.60
2023-05-21T05:02:05.728Z,22.10
2023-05-21T05:04:35.897Z,23.00
2023-05-21T05:07:05.971Z,23.60
2023-05-21T05:09:38.745Z,24.50
2023-05-21T05:12:12.692Z,24.60
2023-05-21T05:14:42.648Z,24.10
2023-05-21T05:17:15.079Z,24.80
2023-05-21T05:19:44.417Z,24.90
2023-05-21T05:22:13.618Z,25.20
2023-05-21T05:24:42.937Z,25.60
2023-05-21T05:27:13.504Z,26.80
2023-05-21T05:29:42.643Z,26.60
2023-05-21T05:32:11.451Z,27.90
2023-05-21T05:34:39.800Z,27.70
2023-05-21T05:37:07.952Z,27.60
2023-05-21T05:39:36.533Z,27.30
2023-05-21T05:42:06.172Z,27.20
2023-05-21T05:44:35.228Z,27.50
2023-05-21T05:47:02.831Z,27.60
2023-05-21T05:49:31.174Z,28.00
2023-05-21T05:52:00.704Z,28.50
2023-05-21T05:54:28.948Z,28.50
2023-05-21T05:56:57.323Z,29.30
2023-05-21T05:59:28.874Z,29.20
2023-05-21T06:01:56.273Z,29.10
2023-05-21T06:04:27.076Z,29.20
2023-05-21T06:06:58.877Z,29.70
2023-05-21T06:09:26.797Z,29.80
2023-05-21T06:11:57.249Z,28.80
2023-05-21T06:14:29.113Z,28.80
2023-05-21T06:17:00.272Z,29.70
2023-05-21T06:19:31.549Z,29.70
2023-05-21T06:22:02.433Z,29.70
2023-05-21T06:24:32.837Z,29.60
2023-05-21T06:27:02.959Z,29.30
2023-05-21T06:29:32.103Z,29.50
2023-05-21T06:32:06.581Z,29.60
2023-05-21T06:34:34.778Z,29.90
2023-05-21T06:37:02.452Z,30.10
2023-05-21T06:39:31.390Z,29.90
2023-05-21T06:42:11.785Z,30.40
2023-05-21T06:44:49.625Z,29.50
2023-05-21T06:47:19.173Z,29.40
2023-05-21T06:49:51.443Z,29.70
2023-05-21T06:52:22.677Z,29.80
2023-05-21T06:54:50.695Z,30.30
2023-05-21T06:57:18.432Z,31.20
2023-05-21T06:59:46.716Z,31.80
2023-05-21T07:02:15.497Z,31.50
2023-05-21T07:04:43.805Z,31.30
2023-05-21T07:07:11.754Z,31.40
2023-05-21T07:09:40.143Z,30.90
2023-05-21T07:12:08.945Z,29.60
2023-05-21T07:14:36.683Z,29.60
2023-05-21T07:17:05.080Z,31.00
2023-05-21T07:19:34.751Z,32.10
2023-05-21T07:22:03.087Z,32.50
2023-05-21T07:24:30.982Z,31.90
2023-05-21T07:26:59.185Z,31.90
2023-05-21T07:29:27.187Z,32.50
2023-05-21T07:31:55.942Z,32.40
2023-05-21T07:34:25.731Z,32.20
2023-05-21T07:36:54.358Z,32.60
2023-05-21T07:39:22.709Z,33.20
2023-05-21T07:41:52.745Z,33.40
2023-05-21T07:44:21.315Z,33.30
2023-05-21T07:46:50.999Z,33.80
2023-05-21T07:49:20.483Z,33.60
2023-05-21T07:51:49.051Z,33.80
2023-05-21T07:54:18.897Z,34.60
2023-05-21T07:56:49.037Z,34.70
2023-05-21T07:59:18.007Z,34.60
2023-05-21T08:01:46.747Z,34.40
2023-05-21T08:04:15.939Z,33.60
2023-05-21T08:06:51.860Z,34.10
2023-05-21T08:09:25.832Z,34.90
2023-05-21T08:12:00.237Z,34.30
2023-05-21T08:14:48.257Z,35.00
2023-05-21T08:17:19.923Z,34.80
2023-05-21T08:19:47.876Z,35.10
2023-05-21T08:22:27.666Z,35.30
2023-05-21T08:25:29.872Z,35.80
2023-05-21T08:28:10.482Z,36.00
2023-05-21T08:30:47.712Z,35.70
2023-05-21T08:33:21.664Z,35.10
2023-05-21T08:35:58.134Z,35.60
2023-05-21T08:38:53.523Z,35.20
2023-05-21T08:41:25.698Z,34.40
2023-05-21T08:44:00.130Z,32.90
2023-05-21T08:46:34.854Z,33.10
2023-05-21T08:49:04.878Z,33.00
2023-05-21T08:51:32.773Z,32.90
2023-05-21T08:54:03.147Z,34.30
2023-05-21T08:56:37.899Z,34.50
2023-05-21T08:59:05.919Z,34.10
2023-05-21T09:01:34.986Z,34.20
2023-05-21T09:04:19.576Z,34.10
2023-05-21T09:06:52.491Z,33.20
2023-05-21T09:09:34.762Z,32.90
2023-05-21T09:12:02.938Z,32.20
2023-05-21T09:14:34.408Z,31.30
2023-05-21T09:17:03.648Z,31.10
2023-05-21T09:19:35.399Z,32.10
2023-05-21T09:22:05.856Z,32.20
2023-05-21T09:24:36.419Z,32.70
2023-05-21T09:27:10.611Z,32.90
2023-05-21T09:29:39.265Z,33.10
2023-05-21T09:32:14.860Z,33.10
2023-05-21T09:34:43.540Z,33.20
2023-05-21T09:37:27.035Z,33.40
2023-05-21T09:39:55.585Z,33.80
2023-05-21T09:42:24.221Z,33.70
2023-05-21T09:44:54.240Z,33.70
2023-05-21T09:47:22.376Z,33.60
2023-05-21T09:49:50.661Z,32.20
2023-05-21T09:52:28.527Z,32.50
2023-05-21T09:55:11.050Z,32.60
2023-05-21T09:57:49.106Z,31.60
2023-05-21T10:00:20.397Z,31.60
2023-05-21T10:02:52.920Z,31.90
2023-05-21T10:05:25.301Z,32.60
2023-05-21T10:08:04.432Z,32.60
2023-05-21T10:10:33.867Z,33.20
2023-05-21T10:13:13.724Z,33.20
2023-05-21T10:15:52.034Z,33.60
2023-05-21T10:18:22.727Z,33.40
2023-05-21T10:20:52.127Z,32.80
2023-05-21T10:23:21.749Z,32.70
2023-05-21T10:25:54.411Z,33.50
2023-05-21T10:28:24.480Z,33.90
2023-05-21T10:30:54.364Z,34.10
2023-05-21T10:33:26.267Z,34.40
2023-05-21T10:35:59.228Z,34.40
2023-05-21T10:38:28.252Z,34.40
2023-05-21T10:40:57.381Z,34.10
2023-05-21T10:44:00.986Z,32.80
2023-05-21T10:47:04.488Z,32.00
2023-05-21T10:49:49.963Z,32.00
2023-05-21T10:53:22.184Z,31.40
2023-05-21T10:56:10.788Z,30.40
2023-05-21T10:59:08.303Z,30.10
2023-05-21T11:01:41.096Z,30.10
2023-05-21T11:04:09.593Z,30.20
2023-05-21T11:06:38.791Z,29.90
2023-05-21T11:09:15.565Z,29.80
2023-05-21T11:11:59.440Z,29.50
2023-05-21T11:14:59.100Z,29.10
2023-05-21T11:17:57.114Z,28.90
2023-05-21T11:20:37.435Z,28.60
2023-05-21T11:23:06.805Z,28.60
2023-05-21T11:25:38.921Z,28.30
2023-05-21T11:28:12.577Z,27.70
2023-05-21T11:30:42.100Z,27.90
2023-05-21T11:33:10.981Z,27.70
2023-05-21T11:35:53.210Z,27.40
2023-05-21T11:38:23.595Z,27.40
2023-05-21T11:40:55.845Z,27.40
2023-05-21T11:43:26.090Z,27.10
2023-05-21T11:46:01.032Z,27.30
2023-05-21T11:48:34.971Z,26.00
2023-05-21T11:51:05.955Z,25.70
2023-05-21T11:53:34.937Z,24.60
2023-05-21T11:56:06.031Z,24.20
2023-05-21T11:58:34.573Z,24.30
2023-05-21T12:01:03.282Z,24.30
2023-05-21T12:03:35.751Z,24.60
2023-05-21T12:06:08.722Z,24.60
2023-05-21T12:08:38.549Z,24.70
2023-05-21T12:11:08.303Z,24.90
2023-05-21T12:13:37.261Z,25.50
2023-05-21T12:16:10.181Z,26.30
2023-05-21T12:18:39.822Z,26.60
2023-05-21T12:21:12.358Z,26.90
2023-05-21T12:23:43.651Z,26.90
2023-05-21T12:26:12.677Z,26.80
2023-05-21T12:28:40.839Z,25.90
2023-05-21T12:31:16.565Z,25.30
2023-05-21T12:33:52.528Z,24.80
2023-05-21T12:36:34.711Z,24.80
2023-05-21T12:39:04.769Z,24.70
2023-05-21T12:41:33.732Z,24.70
2023-05-21T12:44:05.852Z,24.20
2023-05-21T12:46:38.350Z,24.20
2023-05-21T12:49:07.639Z,24.00
2023-05-21T12:51:40.802Z,23.90
2023-05-21T12:54:15.772Z,23.90
2023-05-21T12:56:47.487Z,23.90
2023-05-21T12:59:16.458Z,23.50
2023-05-21T13:01:49.202Z,23.60
2023-05-21T13:04:21.556Z,23.60
2023-05-21T13:06:50.935Z,23.20
2023-05-21T13:09:21.419Z,23.40
2023-05-21T13:11:50.644Z,23.10
2023-05-21T13:14:24.784Z,21.20
2023-05-21T13:16:53.934Z,23.20
2023-05-21T13:19:24.493Z,23.00
2023-05-21T13:21:58.584Z,22.80
2023-05-21T13:24:26.253Z,22.80
2023-05-21T13:26:56.875Z,22.70
2023-05-21T13:29:26.616Z,22.70
2023-05-21T13:31:54.938Z,22.70
2023-05-21T13:34:23.061Z,22.80
2023-05-21T13:36:57.348Z,23.00
2023-05-21T13:39:27.973Z,22.80
2023-05-21T13:41:58.727Z,22.80
2023-05-21T13:44:30.363Z,22.80
2023-05-21T13:46:58.433Z,23.00
2023-05-21T13:49:27.630Z,23.00
2023-05-21T13:51:56.105Z,23.40
2023-05-21T13:54:25.357Z,23.30
2023-05-21T13:56:55.160Z,23.40
2023-05-21T13:59:23.806Z,23.60
2023-05-21T14:01:52.832Z,23.40
2023-05-21T14:04:21.792Z,23.20
2023-05-21T14:06:51.581Z,23.20
2023-05-21T14:09:20.298Z,23.20
2023-05-21T14:11:48.444Z,23.10
2023-05-21T14:14:19.427Z,23.20
2023-05-21T14:16:48.009Z,23.40
2023-05-21T14:19:19.128Z,22.90
2023-05-21T14:21:48.661Z,23.10
2023-05-21T14:24:17.234Z,23.20
2023-05-21T14:26:45.408Z,22.90
2023-05-21T14:29:13.809Z,23.10
2023-05-21T14:31:41.921Z,23.00
2023-05-21T14:34:11.885Z,23.30
2023-05-21T14:36:42.640Z,23.10
2023-05-21T14:39:10.786Z,23.30
2023-05-21T14:41:40.917Z,23.20
2023-05-21T14:46:51.730Z,23.20
2023-05-21T14:49:20.177Z,23.20
2023-05-21T14:51:48.054Z,23.20
2023-05-21T14:54:16.219Z,23.20
2023-05-21T14:56:48.158Z,23.30
2023-05-21T14:59:17.617Z,23.20
2023-05-21T15:01:45.531Z,23.60
2023-05-21T15:04:17.098Z,23.30
2023-05-21T15:06:48.027Z,23.50
2023-05-21T15:09:16.428Z,23.60
2023-05-21T15:11:47.062Z,23.60
2023-05-21T15:14:15.225Z,23.70
2023-05-21T15:16:43.127Z,23.40
2023-05-21T15:19:12.001Z,23.60
2023-05-21T15:21:40.287Z,23.30
2023-05-21T15:24:08.267Z,23.00
2023-05-21T15:26:37.027Z,23.20
2023-05-21T15:29:05.336Z,23.30
2023-05-21T15:31:33.936Z,23.20
2023-05-21T15:34:01.536Z,23.30
2023-05-21T15:36:29.040Z,23.30
2023-05-21T15:38:57.144Z,22.80
2023-05-21T15:41:24.989Z,22.80
2023-05-21T15:43:53.230Z,23.00
2023-05-21T15:46:21.292Z,23.10
2023-05-21T15:48:48.969Z,22.60
2023-05-21T15:51:17.108Z,22.80
2023-05-21T15:53:44.945Z,22.70
2023-05-21T15:56:13.552Z,22.70
2023-05-21T15:58:42.280Z,22.60
2023-05-21T16:01:10.110Z,22.30
2023-05-21T16:03:41.880Z,22.10
2023-05-21T16:06:10.857Z,21.90
2023-05-21T16:08:38.845Z,21.60
2023-05-21T16:11:06.815Z,21.50
2023-05-21T16:13:35.252Z,21.50
2023-05-21T16:16:03.245Z,21.70
2023-05-21T16:18:31.857Z,21.40
2023-05-21T16:20:59.982Z,21.50
2023-05-21T16:23:28.767Z,21.60
2023-05-21T16:25:57.017Z,21.50
2023-05-21T16:30:58.828Z,21.50
2023-05-21T16:33:26.609Z,21.20
2023-05-21T16:36:10.656Z,21.50
2023-05-21T16:38:40.657Z,21.30
2023-05-21T16:41:10.460Z,21.20
2023-05-21T16:43:38.348Z,21.60
2023-05-21T16:46:06.223Z,21.60
2023-05-21T16:48:37.358Z,21.90
2023-05-21T16:51:06.221Z,21.80
2023-05-21T16:53:34.538Z,21.70
2023-05-21T16:56:02.206Z,21.40
2023-05-21T16:58:30.133Z,21.60
2023-05-21T17:00:57.801Z,21.60
2023-05-21T17:03:26.398Z,21.40
2023-05-21T17:05:54.555Z,21.40
2023-05-21T17:08:24.794Z,21.50
2023-05-21T17:10:56.565Z,21.50
2023-05-21T17:13:25.455Z,21.60
2023-05-21T17:15:54.013Z,21.50
2023-05-21T17:18:24.974Z,21.20
2023-05-21T17:20:53.079Z,21.10
2023-05-21T17:23:26.888Z,21.40
2023-05-21T17:25:56.830Z,21.00
2023-05-21T17:28:25.783Z,21.20
2023-05-21T17:30:56.583Z,21.30
2023-05-21T17:33:25.818Z,20.90
2023-05-21T17:35:54.622Z,20.60
2023-05-21T17:38:29.277Z,20.90
2023-05-21T17:40:59.076Z,21.00
2023-05-21T17:44:00.958Z,20.70
2023-05-21T17:46:42.207Z,20.70
2023-05-21T17:50:52.102Z,20.70
2023-05-21T17:52:30.262Z,20.70
2023-05-21T17:55:53.564Z,20.50
2023-05-21T17:58:28.613Z,20.40
2023-05-21T18:04:31.110Z,20.20
2023-05-21T18:07:34.223Z,20.10
2023-05-21T18:10:22.896Z,20.00
2023-05-21T18:12:51.546Z,19.90
2023-05-21T18:15:20.064Z,19.90
2023-05-21T18:17:51.657Z,19.80
2023-05-21T18:20:30.586Z,19.70
2023-05-21T18:23:13.037Z,19.60
2023-05-21T18:25:42.025Z,19.60
2023-05-21T18:28:10.590Z,19.50
2023-05-21T18:30:39.066Z,19.70
2023-05-21T18:33:08.628Z,19.30
2023-05-21T18:35:40.310Z,19.40
2023-05-21T18:38:12.540Z,19.30
2023-05-21T18:40:42.052Z,19.20
2023-05-21T18:43:10.993Z,19.50
2023-05-21T18:45:38.859Z,19.20
2023-05-21T18:48:07.282Z,19.30
2023-05-21T18:50:37.803Z,19.40
2023-05-21T18:53:07.515Z,19.00
2023-05-21T18:55:36.857Z,19.40
2023-05-21T18:58:05.468Z,19.30
2023-05-21T19:00:35.577Z,19.20
2023-05-21T19:03:03.863Z,19.10
2023-05-21T19:05:32.415Z,19.10
2023-05-21T19:08:00.914Z,18.90
2023-05-21T19:10:32.600Z,18.80
2023-05-21T19:13:01.282Z,19.00
2023-05-21T19:15:30.266Z,18.70
2023-05-21T19:17:59.124Z,18.70
2023-05-21T19:20:33.657Z,18.60
2023-05-21T19:23:04.916Z,18.80
2023-05-21T19:25:34.110Z,18.90
2023-05-21T19:28:02.352Z,18.60
2023-05-21T19:30:30.847Z,18.60
2023-05-21T19:33:00.721Z,18.50
2023-05-21T19:35:30.337Z,18.50
2023-05-21T19:38:04.320Z,18.40
2023-05-21T19:40:34.244Z,18.40
2023-05-21T19:43:13.073Z,18.30
2023-05-21T19:45:44.324Z,18.40
2023-05-21T19:48:13.049Z,18.30
2023-05-21T19:50:42.037Z,18.20
2023-05-21T19:53:19.173Z,18.10
2023-05-21T19:55:50.617Z,18.30
2023-05-21T19:58:25.259Z,18.00
2023-05-21T20:00:56.103Z,17.90
2023-05-21T20:03:27.296Z,17.90
2023-05-21T20:05:55.534Z,18.10
2023-05-21T20:08:26.136Z,18.10
2023-05-21T20:10:54.279Z,18.00
2023-05-21T20:13:23.328Z,17.90
2023-05-21T20:15:52.248Z,17.80
2023-05-21T20:18:22.323Z,17.70
2023-05-21T20:20:53.279Z,17.50
2023-05-21T20:23:21.847Z,17.40
2023-05-21T20:25:53.306Z,17.80
2023-05-21T20:28:23.296Z,17.60
2023-05-21T20:31:00.354Z,17.50
2023-05-21T20:33:31.394Z,17.30
2023-05-21T20:36:00.153Z,17.30
2023-05-21T20:38:28.507Z,17.40
2023-05-21T20:41:00.475Z,17.20
2023-05-21T20:43:54.876Z,17.00
2023-05-21T20:46:39.021Z,17.10
2023-05-21T20:49:10.177Z,17.20
2023-05-21T20:51:45.000Z,17.00
2023-05-21T20:54:13.502Z,17.00
2023-05-21T20:56:45.282Z,17.00
2023-05-21T20:59:16.893Z,16.90
2023-05-21T21:01:48.800Z,16.90
2023-05-21T21:04:39.148Z,16.70
2023-05-21T21:07:12.370Z,16.60
2023-05-21T21:09:41.809Z,16.60
2023-05-21T21:12:24.729Z,16.70
2023-05-21T21:14:55.179Z,16.50
2023-05-21T21:17:27.078Z,17.10
2023-05-21T21:19:56.265Z,16.50
2023-05-21T21:22:25.711Z,16.60
2023-05-21T21:24:54.312Z,16.60
2023-05-21T21:27:24.476Z,16.70
2023-05-21T21:29:54.596Z,16.60
2023-05-21T21:32:24.083Z,16.80
2023-05-21T21:34:53.832Z,17.00
2023-05-21T21:37:22.334Z,16.70
2023-05-21T21:39:53.445Z,17.00
2023-05-21T21:42:22.346Z,16.70
2023-05-21T21:44:50.886Z,16.70
2023-05-21T21:47:19.706Z,16.50
2023-05-21T21:49:49.504Z,16.80
2023-05-21T21:52:19.118Z,16.60
2023-05-21T21:54:50.920Z,16.60
2023-05-21T21:57:20.026Z,16.60
2023-05-21T21:59:49.146Z,16.50
2023-05-21T22:02:21.784Z,16.40
2023-05-21T22:04:51.105Z,16.60
2023-05-21T22:07:21.047Z,16.80
2023-05-21T22:09:49.710Z,16.20
2023-05-21T22:12:18.821Z,16.10
2023-05-21T22:14:48.354Z,16.40
2023-05-21T22:17:18.116Z,16.40
2023-05-21T22:19:47.888Z,16.40
2023-05-21T22:22:19.418Z,16.30
2023-05-21T22:24:48.340Z,16.30
2023-05-21T22:27:18.362Z,16.80
2023-05-21T22:29:46.612Z,16.20
2023-05-21T22:32:19.248Z,16.40
2023-05-21T22:34:48.975Z,16.40
2023-05-21T22:37:18.272Z,16.40
2023-05-21T22:39:47.786Z,16.40
2023-05-21T22:42:16.475Z,16.60
2023-05-21T22:44:45.154Z,16.40
2023-05-21T22:47:16.802Z,16.40
2023-05-21T22:49:46.127Z,16.50
2023-05-21T22:52:16.845Z,16.50
2023-05-21T22:54:46.235Z,16.50
2023-05-21T22:57:16.784Z,16.50
2023-05-21T22:59:44.990Z,16.70
2023-05-21T23:02:13.819Z,16.50
2023-05-21T23:04:44.850Z,16.50
2023-05-21T23:07:16.467Z,16.50
2023-05-21T23:09:44.953Z,16.40
2023-05-21T23:12:14.514Z,16.50
2023-05-21T23:14:42.906Z,16.50
2023-05-21T23:17:14.607Z,16.40
2023-05-21T23:19:43.417Z,16.30
2023-05-21T23:22:12.871Z,16.30
2023-05-21T23:24:42.615Z,16.30
2023-05-21T23:27:14.627Z,16.40
2023-05-21T23:29:43.433Z,16.40
2023-05-21T23:32:12.787Z,16.40
2023-05-21T23:34:42.409Z,16.30
2023-05-21T23:37:11.924Z,16.30
2023-05-21T23:39:41.829Z,16.30
2023-05-21T23:42:10.978Z,16.30
2023-05-21T23:44:40.239Z,16.30
2023-05-21T23:47:09.059Z,16.30
2023-05-21T23:49:40.721Z,16.40
2023-05-21T23:52:09.361Z,16.30
2023-05-21T23:54:39.076Z,16.00
2023-05-21T23:57:08.555Z,16.30
2023-05-21T23:59:37.770Z,16.30
